Middlefield, Ohio
Current Conditions -  °F | °C
As of 2:19 PM on Thursday 30 Oct 2014 (Local Time) from KPOV Reporting Station
Overcast Overcast  
Wind Chill: 44°   Ceiling: 4100
Heat Index: 48°   Visibility: 10mi
Dew Point: 33°   Wind: 7mph
Humidity: 57%   Direction: 250°WSW
Pressure: 30.08"   Gusts: NA
Location:  41.46°N, 81.07°W
Report Text: KPOV 301819Z AUTO 25006KT 10SM SCT031 OVC041 09/01 A3008 RMK AO2 T00870005
Loading
Personal Weather Stations






























Interactive Weather Map
Tropical Storm Tracking
New forecast layout! Learn more

10-Day Weather Forecast

Advertisements
Track Severe Weather on mobile